Time;durP1;ratioP1;P1;durP2;ratioP2;P2;SDS_P1;SDS_P2;PMS_P1;PMS_P2;Temp;Humidity;BMP_temperature;BMP_pressure;BME280_temperature;BME280_humidity;BME280_pressure;Samples;Min_cycle;Max_cycle;Signal;HPM_P1;HPM_P2
2022/03/22 00:00:12;;;;;;;22.77;15.45;;;;;;;6.88;54.39;103206.72;2054512;28;44986;-76
2022/03/22 00:01:15;;;;;;;24.17;16.73;;;;;;;6.82;54.15;103210.13;2047793;28;20048;-76
2022/03/22 00:02:17;;;;;;;24.45;16.50;;;;;;;6.85;54.12;103210.19;2054695;28;44757;-76
2022/03/22 00:03:24;;;;;;;26.08;16.17;;;;;;;6.83;54.74;103213.66;2054905;28;45360;-76
2022/03/22 00:04:30;;;;;;;25.08;16.17;;;;;;;6.77;54.01;103214.41;2055784;28;20058;-76
2022/03/22 00:05:33;;;;;;;24.98;16.05;;;;;;;6.75;54.52;103212.53;2055200;28;45293;-76
2022/03/22 00:06:35;;;;;;;22.02;16.48;;;;;;;6.77;54.52;103217.06;2054692;28;45087;-76
2022/03/22 00:07:37;;;;;;;22.98;16.48;;;;;;;6.74;55.02;103208.97;2055084;28;44480;-76
2022/03/22 00:08:39;;;;;;;25.83;17.15;;;;;;;6.80;54.89;103208.25;2062433;28;45187;-76
2022/03/22 00:09:41;;;;;;;21.48;15.93;;;;;;;6.75;54.30;103212.53;2054444;28;45695;-76
2022/03/22 00:10:42;;;;;;;21.77;16.08;;;;;;;6.73;55.02;103201.88;2055817;28;20109;-76
2022/03/22 00:11:44;;;;;;;22.33;15.90;;;;;;;6.68;54.95;103208.81;2055178;28;42955;-76
2022/03/22 00:12:49;;;;;;;22.25;16.38;;;;;;;6.66;55.26;103206.09;2056167;28;20043;-76
2022/03/22 00:13:50;;;;;;;22.02;15.57;;;;;;;6.65;54.84;103204.28;2062069;28;45221;-76
2022/03/22 00:14:52;;;;;;;23.70;16.17;;;;;;;6.62;55.56;103211.28;2062521;28;38014;-76
2022/03/22 00:16:14;;;;;;;21.38;15.45;;;;;;;6.62;54.96;103208.59;2055212;28;20968;-76
2022/03/22 00:17:37;;;;;;;19.80;14.98;;;;;;;6.61;55.06;103212.16;2054640;28;20140;-76
2022/03/22 00:18:39;;;;;;;23.90;16.83;;;;;;;6.57;54.92;103202.25;2062362;28;44915;-76
2022/03/22 00:19:41;;;;;;;21.50;15.55;;;;;;;6.55;55.63;103209.28;2061921;28;45620;-76
2022/03/22 00:20:43;;;;;;;25.58;15.40;;;;;;;6.57;54.75;103210.22;2063307;28;20082;-76
2022/03/22 00:21:44;;;;;;;22.70;15.80;;;;;;;6.57;54.34;103208.50;2061998;28;44662;-76
2022/03/22 00:22:48;;;;;;;21.45;15.48;;;;;;;6.55;55.37;103206.63;2055047;28;44111;-76
2022/03/22 00:23:49;;;;;;;26.67;15.50;;;;;;;6.53;54.53;103213.66;2055166;28;45564;-76
2022/03/22 00:24:51;;;;;;;20.48;14.20;;;;;;;6.47;55.57;103209.94;2055839;28;20106;-76
2022/03/22 00:25:53;;;;;;;25.95;15.98;;;;;;;6.54;55.15;103212.81;2055032;28;46129;-76
2022/03/22 00:26:55;;;;;;;19.80;14.07;;;;;;;6.55;54.57;103214.59;2054424;28;45900;-76
2022/03/22 00:27:57;;;;;;;23.00;16.67;;;;;;;6.54;54.75;103211.03;2062285;28;44807;-76
2022/03/22 00:28:59;;;;;;;23.08;16.23;;;;;;;6.52;54.28;103206.53;2062538;28;40356;-76
2022/03/22 00:30:06;;;;;;;20.35;15.40;;;;;;;6.54;55.02;103216.38;2056477;28;20079;-76
2022/03/22 00:31:08;;;;;;;20.95;15.68;;;;;;;6.47;55.47;103209.06;2055992;28;20039;-76
2022/03/22 00:32:10;;;;;;;25.67;16.08;;;;;;;6.51;55.12;103218.94;2055041;28;43335;-75
2022/03/22 00:33:11;;;;;;;22.98;16.25;;;;;;;6.53;54.90;103209.22;2055239;28;43535;-76
2022/03/22 00:34:15;;;;;;;26.67;16.73;;;;;;;6.55;55.28;103214.59;2055418;28;46285;-76
2022/03/22 00:35:18;;;;;;;23.52;16.23;;;;;;;6.51;54.43;103213.59;2055970;28;20051;-76
2022/03/22 00:36:20;;;;;;;24.33;16.13;;;;;;;6.50;55.82;103218.03;2055490;28;34506;-76
2022/03/22 00:37:22;;;;;;;24.73;15.98;;;;;;;6.43;55.75;103209.81;2055094;28;45664;-74
2022/03/22 00:38:26;;;;;;;23.48;14.93;;;;;;;6.36;55.89;103208.72;2063410;28;20078;-75
2022/03/22 00:39:28;;;;;;;29.10;16.10;;;;;;;6.35;55.92;103204.25;2061608;28;45152;-76
2022/03/22 00:40:30;;;;;;;23.38;15.52;;;;;;;6.34;55.66;103213.09;2056110;28;20043;-74
2022/03/22 00:41:32;;;;;;;24.20;16.20;;;;;;;6.39;56.15;103211.50;2062620;28;34182;-75
2022/03/22 00:42:33;;;;;;;23.00;15.82;;;;;;;6.40;56.28;103204.41;2061851;28;43469;-76
2022/03/22 00:43:35;;;;;;;23.33;16.17;;;;;;;6.35;55.78;103214.88;2061961;28;44209;-75
2022/03/22 00:44:38;;;;;;;22.73;16.65;;;;;;;6.37;56.04;103213.19;2054357;28;46989;-75
2022/03/22 00:45:41;;;;;;;24.13;16.50;;;;;;;6.32;56.11;103206.81;2054637;28;43591;-75
2022/03/22 00:46:43;;;;;;;28.13;16.98;;;;;;;6.31;56.13;103208.56;2062220;28;44552;-75
2022/03/22 00:47:46;;;;;;;21.02;15.27;;;;;;;6.31;56.75;103207.66;2055394;28;35018;-76
2022/03/22 00:48:49;;;;;;;22.63;16.52;;;;;;;6.26;55.38;103204.88;2056417;28;20959;-75
2022/03/22 00:49:51;;;;;;;22.05;15.60;;;;;;;6.27;56.84;103203.13;2054235;28;45332;-75
2022/03/22 00:50:52;;;;;;;27.00;16.40;;;;;;;6.25;55.41;103208.38;2055446;28;43886;-75
2022/03/22 00:51:54;;;;;;;22.17;16.25;;;;;;;6.23;56.17;103209.22;2054544;28;43135;-75
2022/03/22 00:52:57;;;;;;;25.23;16.23;;;;;;;6.18;55.59;103202.84;2055921;28;20047;-75
2022/03/22 00:54:02;;;;;;;19.23;14.45;;;;;;;6.14;55.80;103208.88;2062124;28;43736;-75
2022/03/22 00:55:05;;;;;;;20.73;15.85;;;;;;;6.14;56.94;103206.22;2062067;28;45111;-75
2022/03/22 00:56:08;;;;;;;21.75;15.95;;;;;;;6.15;55.61;103206.28;2046533;28;44231;-76
2022/03/22 00:57:10;;;;;;;24.17;15.77;;;;;;;6.14;56.35;103207.16;2046534;28;45148;-76
2022/03/22 00:58:11;;;;;;;23.85;16.23;;;;;;;6.17;56.08;103212.53;2046391;28;46514;-76
2022/03/22 01:00:34;;;;;;;24.33;16.95;;;;;;;6.14;56.10;103208.88;2040804;28;44439;-76
2022/03/22 01:01:36;;;;;;;21.65;15.90;;;;;;;6.10;56.45;103210.53;2033571;29;20225;-76
2022/03/22 01:02:42;;;;;;;24.85;15.90;;;;;;;6.08;56.78;103215.84;2038695;28;46132;-76
2022/03/22 01:03:44;;;;;;;22.77;16.13;;;;;;;6.14;56.71;103207.16;2046727;28;37833;-76
2022/03/22 01:04:46;;;;;;;25.13;15.82;;;;;;;6.13;56.91;103210.66;2046251;28;44513;-75
2022/03/22 01:05:59;;;;;;;21.50;15.48;;;;;;;6.13;56.14;103212.41;2054333;28;45178;-76
2022/03/22 01:07:04;;;;;;;25.67;15.65;;;;;;;6.07;56.38;103208.69;2052232;28;44860;-76
2022/03/22 01:08:11;;;;;;;24.20;16.58;;;;;;;6.11;56.03;103210.59;2046108;28;44093;-76
2022/03/22 01:09:15;;;;;;;22.42;16.30;;;;;;;6.04;55.36;103205.94;2047181;28;20175;-76
2022/03/22 01:10:19;;;;;;;22.45;15.32;;;;;;;6.06;55.64;103212.19;2047123;28;44549;-76
2022/03/22 01:11:21;;;;;;;23.70;15.48;;;;;;;6.08;56.61;103215.84;2045933;28;43026;-76
2022/03/22 01:12:23;;;;;;;24.05;15.80;;;;;;;6.03;55.52;103206.81;2046682;28;45946;-76
2022/03/22 01:13:27;;;;;;;23.33;15.95;;;;;;;6.04;56.61;103210.34;2047114;28;45399;-76
2022/03/22 01:14:29;;;;;;;21.85;14.43;;;;;;;5.99;56.00;103210.19;2054077;28;49121;-76
2022/03/22 01:15:34;;;;;;;22.73;15.40;;;;;;;5.97;55.61;103206.59;2047073;28;20948;-75
2022/03/22 01:16:36;;;;;;;25.75;16.48;;;;;;;5.95;56.19;103207.38;2047172;28;20043;-75
2022/03/22 01:17:40;;;;;;;23.92;16.40;;;;;;;5.91;55.88;103209.91;2054985;28;20051;-76
2022/03/22 01:18:42;;;;;;;22.73;16.08;;;;;;;5.92;56.04;103211.75;2054228;28;45610;-76
2022/03/22 01:19:44;;;;;;;23.88;16.40;;;;;;;5.91;56.86;103212.56;2046358;28;46142;-76
2022/03/22 01:20:49;;;;;;;20.48;15.30;;;;;;;5.89;55.77;103206.31;2046378;28;45131;-76
2022/03/22 01:21:51;;;;;;;22.83;16.52;;;;;;;5.90;56.34;103209.88;2046815;28;44152;-76
2022/03/22 01:22:54;;;;;;;26.15;17.25;;;;;;;5.88;56.63;103209.81;2047682;28;20042;-75
2022/03/22 01:23:58;;;;;;;19.73;15.20;;;;;;;5.87;56.36;103209.78;2046582;28;44385;-76
2022/03/22 01:25:00;;;;;;;22.45;15.52;;;;;;;5.87;55.93;103204.47;2046001;28;43918;-76
2022/03/22 01:26:02;;;;;;;22.30;15.43;;;;;;;5.84;56.36;103210.56;2054871;28;34730;-76
2022/03/22 01:27:04;;;;;;;20.13;14.52;;;;;;;5.80;56.23;103211.31;2054470;28;45465;-76
2022/03/22 01:28:09;;;;;;;25.27;15.65;;;;;;;5.81;56.62;103198.94;2062333;28;45114;-76
2022/03/22 01:29:11;;;;;;;22.35;14.90;;;;;;;5.89;55.55;103198.34;2045593;28;44877;-76
2022/03/22 01:30:15;;;;;;;21.35;15.38;;;;;;;5.83;55.99;103206.13;2046841;28;45023;-76
2022/03/22 01:31:17;;;;;;;23.65;16.20;;;;;;;5.81;56.49;103198.94;2053757;28;38648;-76
2022/03/22 01:32:18;;;;;;;22.48;14.93;;;;;;;5.84;56.07;103204.34;2054561;28;43767;-76
2022/03/22 01:33:20;;;;;;;21.55;14.90;;;;;;;5.82;55.80;103203.41;2054193;28;45145;-76
2022/03/22 01:34:24;;;;;;;18.83;14.30;;;;;;;5.79;55.57;103200.63;2061994;28;43807;-76
2022/03/22 01:35:26;;;;;;;22.48;16.65;;;;;;;5.81;57.39;103198.94;2060619;28;46609;-75
2022/03/22 01:36:30;;;;;;;25.92;16.83;;;;;;;5.82;57.12;103200.75;2054560;28;46261;-76
2022/03/22 01:37:33;;;;;;;25.50;15.60;;;;;;;5.74;56.16;103197.81;2061479;28;45348;-76
2022/03/22 01:38:35;;;;;;;19.23;14.70;;;;;;;5.66;56.14;103200.22;2061696;28;45314;-75
2022/03/22 01:39:37;;;;;;;25.02;15.30;;;;;;;5.62;57.64;103205.41;2061650;28;43880;-76
2022/03/22 01:40:39;;;;;;;17.50;13.73;;;;;;;5.59;57.38;103202.63;2062653;28;44256;-75
2022/03/22 01:41:41;;;;;;;20.58;14.93;;;;;;;5.52;56.54;103196.19;2061520;28;46128;-76
2022/03/22 01:42:43;;;;;;;21.02;15.45;;;;;;;5.48;56.64;103204.91;2046720;28;31566;-76
2022/03/22 01:43:46;;;;;;;24.20;15.70;;;;;;;5.44;57.65;103193.28;2047122;28;20051;-76
2022/03/22 01:44:53;;;;;;;22.08;15.30;;;;;;;5.41;57.90;103193.16;2055819;28;20171;-76
2022/03/22 01:45:55;;;;;;;23.15;15.73;;;;;;;5.43;57.19;103199.44;2062404;28;20054;-76
2022/03/22 01:47:01;;;;;;;27.10;15.85;;;;;;;5.42;57.94;103194.06;2061689;28;45304;-76
2022/03/22 01:48:05;;;;;;;21.83;14.73;;;;;;;5.31;58.04;103197.25;2063156;28;20097;-76
2022/03/22 01:49:08;;;;;;;21.35;13.70;;;;;;;5.29;57.92;103198.03;2054215;28;43116;-76
2022/03/22 01:50:18;;;;;;;21.77;14.73;;;;;;;5.28;57.46;103197.16;2055622;28;20039;-76
2022/03/22 01:51:21;;;;;;;26.88;16.85;;;;;;;5.27;57.99;103194.44;2060930;28;42225;-76
2022/03/22 01:52:26;;;;;;;22.75;15.60;;;;;;;5.22;58.33;103206.63;2055712;28;20114;-76
2022/03/22 01:53:29;;;;;;;22.70;14.57;;;;;;;5.22;58.96;103206.63;2055084;28;43365;-76
2022/03/22 01:54:31;;;;;;;22.40;15.02;;;;;;;5.21;58.86;103204.84;2061612;28;45313;-76
2022/03/22 01:55:32;;;;;;;23.15;15.45;;;;;;;5.20;58.49;103201.28;2061953;28;44674;-76
2022/03/22 01:56:36;;;;;;;22.10;15.20;;;;;;;5.20;57.78;103200.38;2054244;28;45629;-76
2022/03/22 01:57:37;;;;;;;25.13;16.23;;;;;;;5.16;58.63;103202.03;2054797;28;44562;-76
2022/03/22 01:58:40;;;;;;;20.73;13.52;;;;;;;5.14;58.34;103203.72;2061966;28;44417;-76
2022/03/22 01:59:41;;;;;;;23.13;16.25;;;;;;;5.19;59.08;103198.56;2062007;28;45412;-76
2022/03/22 02:00:43;;;;;;;24.00;15.30;;;;;;;5.14;59.08;103201.97;2054328;28;44303;-76
2022/03/22 02:05:51;;;;;;;23.63;15.25;;;;;;;5.05;58.38;103209.59;2062333;28;45231;-76
2022/03/22 02:06:54;;;;;;;20.50;15.00;;;;;;;5.09;58.16;103192.03;2053906;28;46071;-76
2022/03/22 02:08:00;;;;;;;21.63;15.18;;;;;;;5.03;58.90;103200.69;2054913;28;39594;-75
2022/03/22 02:09:03;;;;;;;19.23;13.98;;;;;;;5.03;58.75;103199.78;2054629;28;20074;-76
2022/03/22 02:10:06;;;;;;;21.55;14.63;;;;;;;4.98;59.01;103200.50;2054337;28;44287;-76
2022/03/22 02:11:08;;;;;;;24.42;15.27;;;;;;;5.00;58.75;103199.66;2061827;28;43910;-76
2022/03/22 02:12:10;;;;;;;21.83;15.27;;;;;;;4.96;58.89;103193.34;2062224;28;20887;-76
2022/03/22 02:13:13;;;;;;;23.05;14.63;;;;;;;4.95;59.58;103191.50;2054330;28;37269;-76
2022/03/22 02:14:14;;;;;;;26.88;16.58;;;;;;;4.94;58.64;103190.63;2055161;28;45288;-77
2022/03/22 02:15:16;;;;;;;20.63;14.40;;;;;;;4.93;59.46;103193.22;2061741;28;45817;-76
2022/03/22 02:16:18;;;;;;;22.23;15.95;;;;;;;4.92;59.11;103191.44;2062009;28;43161;-76
2022/03/22 02:17:20;;;;;;;23.48;14.18;;;;;;;4.91;58.84;103195.81;2061480;28;43909;-76
2022/03/22 02:18:24;;;;;;;21.33;15.05;;;;;;;4.90;59.60;103188.72;2062066;28;39637;-76
2022/03/22 02:19:27;;;;;;;23.25;15.30;;;;;;;4.91;59.12;103190.50;2054281;28;45285;-75
2022/03/22 02:20:29;;;;;;;22.98;16.00;;;;;;;4.89;58.95;103186.88;2053960;28;45610;-76
2022/03/22 02:21:36;;;;;;;24.80;15.48;;;;;;;4.91;59.34;103189.59;2053859;28;38762;-76
2022/03/22 02:23:05;;;;;;;21.50;15.60;;;;;;;4.87;59.35;103188.59;2061940;28;45123;-75
2022/03/22 02:24:07;;;;;;;26.33;15.00;;;;;;;4.82;59.49;103190.16;2057785;28;37155;-76
2022/03/22 02:25:15;;;;;;;23.60;14.68;;;;;;;4.82;59.16;103187.50;2053807;28;45285;-76
2022/03/22 02:26:19;;;;;;;24.33;15.40;;;;;;;4.82;59.13;103184.84;2054226;28;44547;-76
2022/03/22 02:27:21;;;;;;;23.60;15.40;;;;;;;4.84;59.34;103187.56;2054452;28;42900;-76
2022/03/22 02:28:22;;;;;;;22.75;15.18;;;;;;;4.85;59.79;103182.31;2054748;28;44033;-76
2022/03/22 02:29:26;;;;;;;21.15;14.90;;;;;;;4.85;59.89;103186.75;2053467;28;44485;-76
2022/03/22 02:30:27;;;;;;;25.05;15.57;;;;;;;4.86;58.64;103186.75;2046318;28;43844;-76
2022/03/22 02:31:31;;;;;;;21.98;15.20;;;;;;;4.87;59.60;103177.06;2045800;28;45168;-76
2022/03/22 02:32:35;;;;;;;22.52;16.05;;;;;;;4.97;59.31;103184.50;2046162;28;43663;-76
2022/03/22 02:33:41;;;;;;;24.10;16.17;;;;;;;4.91;58.82;103184.28;2053442;28;45302;-76
2022/03/22 02:34:43;;;;;;;21.67;15.13;;;;;;;4.88;59.66;103185.09;2053476;28;44845;-76
2022/03/22 02:35:47;;;;;;;23.27;16.27;;;;;;;5.00;59.16;103189.03;2046708;28;20787;-76
2022/03/22 02:36:49;;;;;;;22.15;16.17;;;;;;;5.02;58.68;103190.00;2053603;28;46691;-74
2022/03/22 02:37:52;;;;;;;23.45;16.10;;;;;;;4.98;58.37;103186.31;2054331;28;42997;-76
2022/03/22 02:38:54;;;;;;;24.70;15.57;;;;;;;5.03;58.24;103181.19;2053927;28;44043;-76
2022/03/22 02:39:55;;;;;;;24.55;16.13;;;;;;;5.07;58.37;103183.09;2053766;28;44686;-76
2022/03/22 02:40:57;;;;;;;26.23;15.80;;;;;;;5.00;58.35;103189.03;2054778;28;42862;-76
2022/03/22 02:41:59;;;;;;;22.52;15.77;;;;;;;5.02;58.36;103188.25;2055387;28;46421;-76
2022/03/22 02:43:03;;;;;;;22.52;15.10;;;;;;;5.03;57.98;103189.16;2055252;28;44521;-76
2022/03/22 02:44:05;;;;;;;24.23;16.35;;;;;;;5.07;58.31;103183.09;2062614;28;44446;-76
2022/03/22 02:45:07;;;;;;;21.45;15.40;;;;;;;5.01;58.62;103182.88;2055284;28;36960;-76
2022/03/22 02:46:09;;;;;;;24.27;15.98;;;;;;;5.00;58.89;103191.69;2054932;28;43754;-76
2022/03/22 02:47:11;;;;;;;20.30;14.50;;;;;;;4.99;58.58;103182.84;2055670;28;44358;-76
2022/03/22 02:48:13;;;;;;;23.88;16.48;;;;;;;4.96;57.97;103180.97;2055926;28;33220;-76
2022/03/22 02:49:14;;;;;;;20.35;14.85;;;;;;;4.93;58.36;103182.59;2056168;28;45578;-76
2022/03/22 02:50:17;;;;;;;17.98;13.38;;;;;;;4.85;58.35;103182.31;2062631;28;44822;-75
2022/03/22 02:51:18;;;;;;;22.20;15.73;;;;;;;4.82;58.83;103182.19;2047017;28;43395;-76
2022/03/22 02:52:20;;;;;;;21.58;14.25;;;;;;;4.79;58.62;103192.69;2039247;28;45711;-75
2022/03/22 02:53:22;;;;;;;22.10;14.18;;;;;;;4.75;58.91;103182.81;2047075;28;46032;-76
2022/03/22 02:54:23;;;;;;;23.85;15.63;;;;;;;4.75;59.59;103188.13;2055090;28;43848;-76
2022/03/22 02:55:25;;;;;;;24.10;16.58;;;;;;;4.78;59.13;103183.84;2062824;28;44927;-75
2022/03/22 02:56:30;;;;;;;20.60;15.00;;;;;;;4.74;59.05;103189.00;2055922;28;20932;-76
2022/03/22 02:57:33;;;;;;;21.38;14.98;;;;;;;4.74;59.63;103197.84;2055583;28;43518;-75
2022/03/22 02:58:38;;;;;;;24.88;16.60;;;;;;;4.85;59.32;103192.94;2063058;28;43972;-76
2022/03/22 02:59:40;;;;;;;23.85;15.73;;;;;;;4.75;59.20;103193.44;2055444;28;43880;-76
2022/03/22 03:00:41;;;;;;;26.85;15.70;;;;;;;4.70;59.92;103190.63;2054738;28;44951;-76
2022/03/22 03:01:43;;;;;;;22.25;15.43;;;;;;;4.71;59.91;103194.19;2055909;28;42712;-76
2022/03/22 03:02:49;;;;;;;23.20;15.05;;;;;;;4.67;60.16;103192.25;2055686;28;40984;-76
2022/03/22 03:03:53;;;;;;;22.40;16.10;;;;;;;4.63;60.35;103198.28;2055726;28;46442;-76
2022/03/22 03:04:57;;;;;;;27.05;15.90;;;;;;;4.64;60.06;103197.44;2055215;28;43196;-76
2022/03/22 03:05:59;;;;;;;21.58;15.45;;;;;;;4.61;59.67;103194.66;2056824;28;20426;-75
2022/03/22 03:07:01;;;;;;;22.73;16.27;;;;;;;4.59;59.70;103199.91;2055012;28;43028;-76
2022/03/22 03:08:03;;;;;;;22.30;14.95;;;;;;;4.57;60.06;103194.53;2056436;28;20122;-76
2022/03/22 03:09:05;;;;;;;20.27;14.13;;;;;;;4.54;59.63;103204.13;2062531;28;45898;-76
2022/03/22 03:10:12;;;;;;;22.63;15.23;;;;;;;4.54;60.79;103199.75;2063597;28;20757;-76
2022/03/22 03:11:13;;;;;;;22.13;15.30;;;;;;;4.52;59.94;103204.09;2055307;28;46545;-74
2022/03/22 03:12:15;;;;;;;21.17;14.40;;;;;;;4.46;60.33;103206.50;2063525;28;38560;-76
2022/03/22 03:13:17;;;;;;;23.00;15.48;;;;;;;4.52;60.59;103193.47;2062908;28;20046;-76
2022/03/22 03:15:39;;;;;;;25.58;16.05;;;;;;;4.46;60.16;103201.19;2055277;28;44637;-76
2022/03/22 03:16:41;;;;;;;21.92;15.48;;;;;;;4.41;60.62;103202.75;2054725;28;45213;-75
2022/03/22 03:17:43;;;;;;;28.17;16.08;;;;;;;4.41;60.08;103208.06;2046428;28;44666;-75
2022/03/22 03:18:47;;;;;;;20.23;14.73;;;;;;;4.43;60.55;103206.38;2055216;28;44038;-76
2022/03/22 03:19:48;;;;;;;24.83;16.92;;;;;;;4.51;60.86;103199.63;2055413;28;45155;-76
2022/03/22 03:20:50;;;;;;;21.65;15.93;;;;;;;4.47;60.86;103189.75;2063369;28;43178;-76
2022/03/22 03:21:52;;;;;;;23.23;15.45;;;;;;;4.48;60.86;103194.19;2062475;28;44368;-76
2022/03/22 03:22:53;;;;;;;24.77;16.65;;;;;;;4.48;60.98;103202.16;2056025;28;44472;-76
2022/03/22 03:23:55;;;;;;;24.67;16.23;;;;;;;4.45;60.91;103198.47;2055209;28;43148;-76
2022/03/22 03:24:57;;;;;;;21.85;14.57;;;;;;;4.43;60.55;103206.38;2055740;28;37569;-77
2022/03/22 03:25:58;;;;;;;22.98;14.95;;;;;;;4.41;60.21;103205.41;2055462;28;43031;-76
2022/03/22 03:27:03;;;;;;;25.08;15.43;;;;;;;4.46;60.39;103197.63;2056593;28;20039;-76
2022/03/22 03:28:05;;;;;;;22.92;15.10;;;;;;;4.46;60.48;103206.50;2062694;28;39957;-76
2022/03/22 03:29:09;;;;;;;19.83;13.60;;;;;;;4.43;60.38;103206.38;2054471;28;44017;-76
2022/03/22 03:30:11;;;;;;;22.13;15.57;;;;;;;4.47;61.03;103212.69;2054617;28;42722;-76
2022/03/22 03:31:13;;;;;;;23.70;16.25;;;;;;;4.52;60.31;103203.16;2055700;28;38446;-76
2022/03/22 03:32:14;;;;;;;25.30;16.60;;;;;;;4.51;60.97;103207.56;2054951;28;44637;-76
2022/03/22 03:33:16;;;;;;;20.33;14.52;;;;;;;4.51;60.07;103204.03;2055703;28;39385;-76
2022/03/22 03:34:19;;;;;;;22.25;15.05;;;;;;;4.50;59.78;103213.72;2054734;28;42744;-76
2022/03/22 03:35:21;;;;;;;20.45;15.40;;;;;;;4.48;59.93;103204.78;2054854;28;44415;-76
2022/03/22 03:36:22;;;;;;;24.35;16.15;;;;;;;4.48;60.08;103209.22;2055223;28;45651;-76
2022/03/22 03:37:29;;;;;;;21.70;15.68;;;;;;;4.49;60.43;103208.38;2062568;28;45330;-76
2022/03/22 03:38:42;;;;;;;20.13;14.15;;;;;;;4.44;60.14;103209.94;2062341;28;20919;-76
2022/03/22 03:39:44;;;;;;;23.27;16.20;;;;;;;4.44;60.17;103208.19;2055203;28;44674;-76
2022/03/22 03:42:07;;;;;;;22.33;14.43;;;;;;;4.42;60.14;103207.22;2054481;28;35667;-76
2022/03/22 03:43:08;;;;;;;22.77;15.60;;;;;;;4.40;60.36;103211.56;2062756;28;44398;-76
2022/03/22 03:47:11;;;;;;;;;;;;;;;4.38;60.47;103208.84;2062623;28;45214;-75
2022/03/22 03:48:13;;;;;;;26.02;15.13;;;;;;;4.37;60.21;103208.78;2058080;28;44766;-76
2022/03/22 03:49:14;;;;;;;22.55;15.00;;;;;;;4.36;60.83;103209.63;2054806;28;45735;-76
2022/03/22 03:50:16;;;;;;;24.92;15.05;;;;;;;4.35;60.54;103202.53;2055178;28;46666;-76
2022/03/22 03:51:19;;;;;;;21.05;14.85;;;;;;;4.35;60.72;103208.72;2054199;28;43556;-76
2022/03/22 03:52:32;;;;;;;24.13;15.27;;;;;;;4.37;60.28;103212.34;2054291;28;44664;-76
2022/03/22 03:53:34;;;;;;;22.42;15.13;;;;;;;4.38;60.67;103202.66;2063946;28;20137;-76
2022/03/22 03:54:37;;;;;;;24.80;15.75;;;;;;;4.38;59.95;103214.16;2061353;28;43147;-76
2022/03/22 03:55:39;;;;;;;20.85;15.15;;;;;;;4.33;60.29;103209.53;2062776;28;44008;-76
2022/03/22 03:56:41;;;;;;;20.95;15.02;;;;;;;4.28;60.55;103203.13;2062792;28;37231;-76
2022/03/22 03:57:44;;;;;;;20.92;13.88;;;;;;;4.25;60.62;103210.94;2062532;28;42913;-76
2022/03/22 03:58:46;;;;;;;19.00;13.95;;;;;;;4.22;60.44;103203.78;2062556;28;44317;-76
2022/03/22 03:59:49;;;;;;;19.52;14.60;;;;;;;4.19;60.87;103211.63;2055774;28;20050;-76
2022/03/22 04:00:54;;;;;;;25.73;14.70;;;;;;;4.18;60.93;103205.41;2056394;28;20117;-76
2022/03/22 04:01:57;;;;;;;21.85;14.07;;;;;;;4.17;61.30;103206.25;2062404;28;37605;-76
2022/03/22 04:02:58;;;;;;;25.25;16.23;;;;;;;4.17;60.88;103208.00;2062979;28;45581;-76
2022/03/22 04:04:00;;;;;;;22.40;14.80;;;;;;;4.14;61.24;103213.19;2054808;28;45284;-76
2022/03/22 04:05:02;;;;;;;19.85;13.95;;;;;;;4.14;61.31;103203.47;2054945;28;43233;-76
2022/03/22 04:06:04;;;;;;;25.48;15.23;;;;;;;4.13;61.13;103206.09;2054334;28;45628;-76
2022/03/22 04:07:09;;;;;;;22.63;14.43;;;;;;;4.09;61.68;103207.72;2047815;28;20884;-76
2022/03/22 04:08:11;;;;;;;24.70;15.65;;;;;;;4.06;61.51;103204.91;2054404;28;44072;-76
2022/03/22 04:09:15;;;;;;;25.48;16.23;;;;;;;4.13;61.91;103209.63;2062730;28;46166;-76
2022/03/22 04:10:17;;;;;;;22.85;16.45;;;;;;;4.12;61.57;103204.25;2062389;28;40533;-76
2022/03/22 04:11:18;;;;;;;20.80;15.80;;;;;;;4.09;61.71;103212.06;2055091;28;45572;-76
2022/03/22 04:12:22;;;;;;;23.58;16.08;;;;;;;4.08;61.65;103208.53;2055166;28;45341;-76
2022/03/22 04:13:23;;;;;;;26.00;15.75;;;;;;;4.06;61.52;103211.97;2055493;28;38552;-74
2022/03/22 04:14:25;;;;;;;22.52;15.65;;;;;;;4.05;61.87;103208.41;2055296;28;46321;-76
2022/03/22 04:15:29;;;;;;;24.10;16.05;;;;;;;4.03;61.61;103210.09;2055225;28;42968;-76
2022/03/22 04:16:31;;;;;;;22.20;15.27;;;;;;;4.00;61.87;103216.19;2055040;28;44078;-76
2022/03/22 04:17:34;;;;;;;23.90;16.10;;;;;;;4.01;61.65;103217.09;2062483;28;46275;-76
2022/03/22 04:18:38;;;;;;;28.58;15.82;;;;;;;3.99;61.56;103219.66;2062048;28;43162;-76
2022/03/22 04:19:39;;;;;;;25.75;16.08;;;;;;;3.98;61.77;103219.59;2054971;28;44792;-77
2022/03/22 04:20:41;;;;;;;23.85;15.75;;;;;;;3.97;62.44;103217.81;2055038;28;44379;-75
2022/03/22 04:22:03;;;;;;;21.80;14.95;;;;;;;3.97;61.90;103212.50;2055786;28;20086;-76
2022/03/22 04:23:21;;;;;;;24.48;15.70;;;;;;;3.97;62.09;103220.47;2063308;28;20129;-76
2022/03/22 04:24:41;;;;;;;25.92;15.23;;;;;;;3.93;62.19;103224.72;2058672;28;20038;-76
2022/03/22 04:26:00;;;;;;;22.33;15.98;;;;;;;3.97;62.18;103221.34;2063492;28;20045;-76
2022/03/22 04:32:42;;;;;;;25.63;15.57;;;;;;;4.02;62.09;103224.19;2054276;28;44596;-75
2022/03/22 04:33:44;;;;;;;22.35;15.70;;;;;;;3.99;61.73;103219.66;2062646;28;45115;-76
2022/03/22 04:34:47;;;;;;;24.88;15.35;;;;;;;4.00;61.54;103229.44;2061914;28;43481;-75
2022/03/22 04:35:50;;;;;;;23.42;15.68;;;;;;;4.03;61.71;103227.75;2046258;28;44295;-76
2022/03/22 04:36:57;;;;;;;22.45;15.23;;;;;;;4.00;61.97;103231.16;2046618;28;34926;-76
2022/03/22 04:37:59;;;;;;;24.30;16.05;;;;;;;4.00;61.78;103221.50;2055063;28;44032;-76
2022/03/22 04:39:01;;;;;;;22.45;16.27;;;;;;;3.98;61.96;103217.88;2055940;28;20836;-76
2022/03/22 04:40:03;;;;;;;21.90;15.75;;;;;;;3.96;61.99;103218.63;2055358;28;45063;-76
2022/03/22 04:41:08;;;;;;;24.00;15.82;;;;;;;3.91;61.99;103221.13;2055793;28;20455;-76
2022/03/22 04:42:15;;;;;;;22.30;15.52;;;;;;;3.91;62.15;103226.41;2056187;28;20038;-76
2022/03/22 04:43:17;;;;;;;20.13;15.30;;;;;;;3.92;62.49;103222.00;2054263;28;44461;-76
2022/03/22 04:44:19;;;;;;;21.88;15.48;;;;;;;3.92;62.36;103233.50;2055013;28;38633;-76
2022/03/22 04:45:22;;;;;;;21.40;14.07;;;;;;;3.88;62.01;103225.38;2055693;28;20840;-76
2022/03/22 04:46:24;;;;;;;22.17;14.27;;;;;;;3.87;62.10;103223.56;2053471;28;43319;-76
2022/03/22 04:47:29;;;;;;;22.77;15.20;;;;;;;3.85;62.18;103222.59;2046938;28;45672;-76
2022/03/22 04:48:31;;;;;;;22.35;15.93;;;;;;;3.88;62.12;103228.03;2048329;28;20094;-76
2022/03/22 04:49:33;;;;;;;21.27;15.40;;;;;;;3.88;62.53;103230.69;2053617;28;44715;-76
2022/03/22 04:50:35;;;;;;;22.45;15.43;;;;;;;3.85;62.69;103236.75;2053654;28;43383;-76
2022/03/22 04:57:02;;;;;;;26.85;16.30;;;;;;;3.82;62.55;103234.88;2055230;28;21019;-77
2022/03/22 04:58:07;;;;;;;25.27;16.27;;;;;;;3.81;62.81;103234.81;2056000;23;20909;-68
2022/03/22 04:59:10;;;;;;;21.38;15.18;;;;;;;3.80;63.44;103228.63;2055059;28;43537;-68
2022/03/22 05:00:16;;;;;;;22.70;15.80;;;;;;;3.80;63.34;103222.38;2061527;28;45569;-69
2022/03/22 05:01:17;;;;;;;23.20;15.98;;;;;;;3.81;63.36;103232.16;2054669;28;43875;-67
2022/03/22 05:02:21;;;;;;;21.65;16.02;;;;;;;3.82;63.74;103236.59;2056000;28;20040;-68
2022/03/22 05:03:22;;;;;;;23.27;17.17;;;;;;;3.81;63.42;103230.41;2054421;28;44281;-68
2022/03/22 05:04:27;;;;;;;26.30;16.65;;;;;;;3.80;63.59;103233.91;2055248;28;36323;-67
2022/03/22 05:06:49;;;;;;;24.50;16.00;;;;;;;3.79;63.37;103237.38;2055208;28;45749;-67
2022/03/22 05:07:50;;;;;;;26.05;16.60;;;;;;;3.79;63.32;103237.38;2054723;28;44488;-68
2022/03/22 05:08:55;;;;;;;22.23;16.25;;;;;;;3.77;63.03;103228.47;2055379;28;43917;-67
2022/03/22 05:09:57;;;;;;;24.50;16.05;;;;;;;3.78;63.42;103224.97;2055193;28;34446;-67
2022/03/22 05:10:59;;;;;;;24.73;15.77;;;;;;;3.76;63.20;103231.94;2055869;28;20039;-68
2022/03/22 05:12:02;;;;;;;26.45;15.90;;;;;;;3.76;63.58;103231.06;2054633;28;45525;-67
2022/03/22 05:13:04;;;;;;;22.95;16.05;;;;;;;3.80;62.77;103233.91;2056305;28;20165;-67
2022/03/22 05:14:07;;;;;;;22.58;15.95;;;;;;;3.78;63.30;103239.97;2054405;28;46407;-67